sensor_id;sensor_type;location;lat;lon;timestamp;pressure;altitude;pressure_sealevel;temperature;humidity
39075;BME280;24826;52.070;20.970;2023-05-03T00:02:12;61867.97;;;-147.04;44.39
39075;BME280;24826;52.070;20.970;2023-05-03T00:04:57;61909.72;;;-147.04;44.39
39075;BME280;24826;52.070;20.970;2023-05-03T00:07:43;61903.75;;;-147.04;44.37
39075;BME280;24826;52.070;20.970;2023-05-03T00:10:28;61915.69;;;-147.04;44.54
39075;BME280;24826;52.070;20.970;2023-05-03T00:13:12;61907.72;;;-147.04;44.56
39075;BME280;24826;52.070;20.970;2023-05-03T00:15:57;61883.88;;;-147.04;44.45
39075;BME280;24826;52.070;20.970;2023-05-03T00:18:41;61893.81;;;-147.04;44.58
39075;BME280;24826;52.070;20.970;2023-05-03T00:21:25;61909.72;;;-147.04;44.45
39075;BME280;24826;52.070;20.970;2023-05-03T00:24:10;61889.84;;;-147.04;44.60
39075;BME280;24826;52.070;20.970;2023-05-03T00:26:55;61923.63;;;-147.04;44.56
39075;BME280;24826;52.070;20.970;2023-05-03T00:29:39;61925.63;;;-147.04;44.67
39075;BME280;24826;52.070;20.970;2023-05-03T00:32:24;61913.69;;;-147.04;44.63
39075;BME280;24826;52.070;20.970;2023-05-03T00:35:09;61901.75;;;-147.04;44.75
39075;BME280;24826;52.070;20.970;2023-05-03T00:37:53;61887.84;;;-147.04;44.81
39075;BME280;24826;52.070;20.970;2023-05-03T00:40:38;61901.75;;;-147.04;44.84
39075;BME280;24826;52.070;20.970;2023-05-03T00:43:22;61887.84;;;-147.04;44.86
39075;BME280;24826;52.070;20.970;2023-05-03T00:46:08;61897.78;;;-147.04;44.84
39075;BME280;24826;52.070;20.970;2023-05-03T00:48:53;61925.63;;;-147.04;44.62
39075;BME280;24826;52.070;20.970;2023-05-03T00:51:37;61885.84;;;-147.04;44.43
39075;BME280;24826;52.070;20.970;2023-05-03T00:54:22;61893.81;;;-147.04;44.54
39075;BME280;24826;52.070;20.970;2023-05-03T00:57:07;61903.75;;;-147.04;44.60
39075;BME280;24826;52.070;20.970;2023-05-03T00:59:51;61919.66;;;-147.04;44.65
39075;BME280;24826;52.070;20.970;2023-05-03T01:02:36;61905.75;;;-147.04;44.57
39075;BME280;24826;52.070;20.970;2023-05-03T01:05:21;61915.69;;;-147.04;44.54
39075;BME280;24826;52.070;20.970;2023-05-03T01:08:14;61913.69;;;-147.04;44.60
39075;BME280;24826;52.070;20.970;2023-05-03T01:11:07;61939.53;;;-147.04;44.65
39075;BME280;24826;52.070;20.970;2023-05-03T01:14:21;61889.84;;;-147.04;44.60
39075;BME280;24826;52.070;20.970;2023-05-03T01:17:13;61903.75;;;-147.04;44.82
39075;BME280;24826;52.070;20.970;2023-05-03T01:20:04;61909.72;;;-147.04;44.93
39075;BME280;24826;52.070;20.970;2023-05-03T01:25:41;61909.72;;;-147.04;44.83
39075;BME280;24826;52.070;20.970;2023-05-03T01:28:26;61877.91;;;-147.04;45.09
39075;BME280;24826;52.070;20.970;2023-05-03T01:31:16;61893.81;;;-147.04;44.88
39075;BME280;24826;52.070;20.970;2023-05-03T01:34:17;61885.84;;;-147.04;44.79
39075;BME280;24826;52.070;20.970;2023-05-03T01:37:07;61913.69;;;-147.04;44.81
39075;BME280;24826;52.070;20.970;2023-05-03T01:40:01;61877.91;;;-147.04;44.71
39075;BME280;24826;52.070;20.970;2023-05-03T01:42:47;61897.78;;;-147.04;44.69
39075;BME280;24826;52.070;20.970;2023-05-03T01:45:33;61905.75;;;-147.04;44.68
39075;BME280;24826;52.070;20.970;2023-05-03T01:48:18;61860.00;;;-147.04;44.66
39075;BME280;24826;52.070;20.970;2023-05-03T01:51:03;61862.00;;;-147.04;44.63
39075;BME280;24826;52.070;20.970;2023-05-03T01:53:47;61891.81;;;-147.04;44.76
39075;BME280;24826;52.070;20.970;2023-05-03T01:56:33;61871.94;;;-147.04;44.62
39075;BME280;24826;52.070;20.970;2023-05-03T01:59:17;61871.94;;;-147.04;44.65
39075;BME280;24826;52.070;20.970;2023-05-03T02:02:02;61879.88;;;-147.04;44.65
39075;BME280;24826;52.070;20.970;2023-05-03T02:04:47;61881.88;;;-147.04;44.68
39075;BME280;24826;52.070;20.970;2023-05-03T02:07:31;61903.75;;;-147.04;44.85
39075;BME280;24826;52.070;20.970;2023-05-03T02:10:16;61893.81;;;-147.04;44.69
39075;BME280;24826;52.070;20.970;2023-05-03T02:13:01;61881.88;;;-147.04;44.84
39075;BME280;24826;52.070;20.970;2023-05-03T02:15:46;61923.63;;;-147.04;44.88
39075;BME280;24826;52.070;20.970;2023-05-03T02:18:31;61905.75;;;-147.04;44.70
39075;BME280;24826;52.070;20.970;2023-05-03T02:21:16;61887.84;;;-147.04;44.80
39075;BME280;24826;52.070;20.970;2023-05-03T02:24:01;61883.88;;;-147.04;44.71
39075;BME280;24826;52.070;20.970;2023-05-03T02:26:45;61889.84;;;-147.04;44.60
39075;BME280;24826;52.070;20.970;2023-05-03T02:29:30;61901.75;;;-147.04;44.84
39075;BME280;24826;52.070;20.970;2023-05-03T02:32:14;61885.84;;;-147.04;44.73
39075;BME280;24826;52.070;20.970;2023-05-03T02:34:59;61879.88;;;-147.04;44.70
39075;BME280;24826;52.070;20.970;2023-05-03T02:37:43;61899.78;;;-147.04;44.86
39075;BME280;24826;52.070;20.970;2023-05-03T02:40:27;61873.91;;;-147.04;44.65
39075;BME280;24826;52.070;20.970;2023-05-03T02:43:11;61881.88;;;-147.04;44.73
39075;BME280;24826;52.070;20.970;2023-05-03T02:45:56;61865.97;;;-147.04;44.60
39075;BME280;24826;52.070;20.970;2023-05-03T02:48:40;61919.66;;;-147.04;44.87
39075;BME280;24826;52.070;20.970;2023-05-03T02:51:25;61897.78;;;-147.04;44.65
39075;BME280;24826;52.070;20.970;2023-05-03T02:54:10;61893.81;;;-147.04;44.79
39075;BME280;24826;52.070;20.970;2023-05-03T02:56:54;61927.63;;;-147.04;44.69
39075;BME280;24826;52.070;20.970;2023-05-03T02:59:39;61879.88;;;-147.04;44.68
39075;BME280;24826;52.070;20.970;2023-05-03T03:02:23;61897.78;;;-147.04;44.72
39075;BME280;24826;52.070;20.970;2023-05-03T03:05:08;61889.84;;;-147.04;44.61
39075;BME280;24826;52.070;20.970;2023-05-03T03:07:53;61871.94;;;-147.04;44.71
39075;BME280;24826;52.070;20.970;2023-05-03T03:10:38;61895.78;;;-147.04;44.57
39075;BME280;24826;52.070;20.970;2023-05-03T03:13:23;61909.72;;;-147.04;44.61
39075;BME280;24826;52.070;20.970;2023-05-03T03:16:07;61897.78;;;-147.04;44.62
39075;BME280;24826;52.070;20.970;2023-05-03T03:18:52;61869.94;;;-147.04;44.74
39075;BME280;24826;52.070;20.970;2023-05-03T03:21:37;61891.81;;;-147.04;44.68
39075;BME280;24826;52.070;20.970;2023-05-03T03:24:21;61889.84;;;-147.04;44.93
39075;BME280;24826;52.070;20.970;2023-05-03T03:27:06;61826.19;;;-147.04;44.82
39075;BME280;24826;52.070;20.970;2023-05-03T03:29:50;61927.63;;;-147.04;44.81
39075;BME280;24826;52.070;20.970;2023-05-03T03:32:34;61895.78;;;-147.04;44.84
39075;BME280;24826;52.070;20.970;2023-05-03T03:35:19;61873.91;;;-147.04;44.69
39075;BME280;24826;52.070;20.970;2023-05-03T03:38:04;61885.84;;;-147.04;44.51
39075;BME280;24826;52.070;20.970;2023-05-03T03:40:49;61893.81;;;-147.04;44.57
39075;BME280;24826;52.070;20.970;2023-05-03T03:43:33;61860.00;;;-147.04;44.49
39075;BME280;24826;52.070;20.970;2023-05-03T03:46:18;61895.78;;;-147.04;44.59
39075;BME280;24826;52.070;20.970;2023-05-03T03:49:02;61869.94;;;-147.04;44.64
39075;BME280;24826;52.070;20.970;2023-05-03T03:51:47;61897.78;;;-147.04;44.52
39075;BME280;24826;52.070;20.970;2023-05-03T03:54:31;61893.81;;;-147.04;44.55
39075;BME280;24826;52.070;20.970;2023-05-03T03:57:17;61897.78;;;-147.04;44.51
39075;BME280;24826;52.070;20.970;2023-05-03T04:00:02;61877.91;;;-147.04;44.89
39075;BME280;24826;52.070;20.970;2023-05-03T04:02:53;61885.84;;;-147.04;44.66
39075;BME280;24826;52.070;20.970;2023-05-03T04:05:38;61875.91;;;-147.04;44.96
39075;BME280;24826;52.070;20.970;2023-05-03T04:08:22;61907.72;;;-147.04;44.80
39075;BME280;24826;52.070;20.970;2023-05-03T04:11:10;61877.91;;;-147.04;44.94
39075;BME280;24826;52.070;20.970;2023-05-03T04:13:58;61909.72;;;-147.04;44.88
39075;BME280;24826;52.070;20.970;2023-05-03T04:16:42;61903.75;;;-147.04;44.86
39075;BME280;24826;52.070;20.970;2023-05-03T04:19:27;61923.63;;;-147.04;44.84
39075;BME280;24826;52.070;20.970;2023-05-03T04:22:11;61877.91;;;-147.04;44.92
39075;BME280;24826;52.070;20.970;2023-05-03T04:24:56;61899.78;;;-147.04;44.79
39075;BME280;24826;52.070;20.970;2023-05-03T04:27:40;61881.88;;;-147.04;44.76
39075;BME280;24826;52.070;20.970;2023-05-03T04:30:24;61830.16;;;-147.04;44.72
39075;BME280;24826;52.070;20.970;2023-05-03T04:33:09;61891.81;;;-147.04;44.60
39075;BME280;24826;52.070;20.970;2023-05-03T04:35:53;61873.91;;;-147.04;44.59
39075;BME280;24826;52.070;20.970;2023-05-03T04:38:37;61911.72;;;-147.04;44.60
39075;BME280;24826;52.070;20.970;2023-05-03T04:41:22;61879.88;;;-147.04;44.63
39075;BME280;24826;52.070;20.970;2023-05-03T04:44:07;61852.03;;;-147.04;44.60
39075;BME280;24826;52.070;20.970;2023-05-03T04:46:52;61883.88;;;-147.04;44.60
39075;BME280;24826;52.070;20.970;2023-05-03T04:49:36;61838.13;;;-147.04;44.58
39075;BME280;24826;52.070;20.970;2023-05-03T04:52:20;61850.06;;;-147.04;44.34
39075;BME280;24826;52.070;20.970;2023-05-03T04:55:05;61879.88;;;-147.04;44.50
39075;BME280;24826;52.070;20.970;2023-05-03T04:57:50;61863.97;;;-147.04;44.50
39075;BME280;24826;52.070;20.970;2023-05-03T05:00:34;61869.94;;;-147.04;44.65
39075;BME280;24826;52.070;20.970;2023-05-03T05:03:19;61905.75;;;-147.04;44.47
39075;BME280;24826;52.070;20.970;2023-05-03T05:06:03;61891.81;;;-147.04;44.59
39075;BME280;24826;52.070;20.970;2023-05-03T05:08:50;61863.97;;;-147.04;44.60
39075;BME280;24826;52.070;20.970;2023-05-03T05:11:35;61887.84;;;-147.04;44.66
39075;BME280;24826;52.070;20.970;2023-05-03T05:14:19;61893.81;;;-147.04;44.57
39075;BME280;24826;52.070;20.970;2023-05-03T05:17:03;61850.06;;;-147.04;44.39
39075;BME280;24826;52.070;20.970;2023-05-03T05:19:48;61826.19;;;-147.04;44.50
39075;BME280;24826;52.070;20.970;2023-05-03T05:22:33;61869.94;;;-147.04;44.58
39075;BME280;24826;52.070;20.970;2023-05-03T05:25:17;61893.81;;;-147.04;44.54
39075;BME280;24826;52.070;20.970;2023-05-03T05:28:01;61844.09;;;-147.04;44.46
39075;BME280;24826;52.070;20.970;2023-05-03T05:30:46;61869.94;;;-147.04;44.42
39075;BME280;24826;52.070;20.970;2023-05-03T05:33:30;61873.91;;;-147.04;44.19
39075;BME280;24826;52.070;20.970;2023-05-03T05:36:15;61893.81;;;-147.04;44.39
39075;BME280;24826;52.070;20.970;2023-05-03T05:39:00;61865.97;;;-147.04;44.51
39075;BME280;24826;52.070;20.970;2023-05-03T05:41:45;61931.59;;;-147.04;44.36
39075;BME280;24826;52.070;20.970;2023-05-03T05:44:30;61885.84;;;-147.04;44.44
39075;BME280;24826;52.070;20.970;2023-05-03T05:47:14;61879.88;;;-147.04;44.38
39075;BME280;24826;52.070;20.970;2023-05-03T05:49:59;61889.84;;;-147.04;44.30
39075;BME280;24826;52.070;20.970;2023-05-03T05:52:43;61881.88;;;-147.04;44.43
39075;BME280;24826;52.070;20.970;2023-05-03T05:55:27;61899.78;;;-147.04;44.39
39075;BME280;24826;52.070;20.970;2023-05-03T05:58:12;61858.00;;;-147.04;44.42
39075;BME280;24826;52.070;20.970;2023-05-03T06:01:00;61858.00;;;-147.04;44.41
39075;BME280;24826;52.070;20.970;2023-05-03T06:03:44;61865.97;;;-147.04;44.44
39075;BME280;24826;52.070;20.970;2023-05-03T06:06:29;61858.00;;;-147.04;44.30
39075;BME280;24826;52.070;20.970;2023-05-03T06:09:14;61871.94;;;-147.04;44.43
39075;BME280;24826;52.070;20.970;2023-05-03T06:11:58;61863.97;;;-147.04;44.41
39075;BME280;24826;52.070;20.970;2023-05-03T06:14:43;61838.13;;;-147.04;44.31
39075;BME280;24826;52.070;20.970;2023-05-03T06:17:27;61881.88;;;-147.04;44.31
39075;BME280;24826;52.070;20.970;2023-05-03T06:20:12;61905.75;;;-147.04;44.44
39075;BME280;24826;52.070;20.970;2023-05-03T06:22:57;61899.78;;;-147.04;44.27
39075;BME280;24826;52.070;20.970;2023-05-03T06:25:44;61862.00;;;-147.04;44.43
39075;BME280;24826;52.070;20.970;2023-05-03T06:28:29;61889.84;;;-147.04;44.36
39075;BME280;24826;52.070;20.970;2023-05-03T06:31:14;61867.97;;;-147.04;44.38
39075;BME280;24826;52.070;20.970;2023-05-03T06:33:58;61879.88;;;-147.04;44.29
39075;BME280;24826;52.070;20.970;2023-05-03T06:36:43;61909.72;;;-147.04;44.44
39075;BME280;24826;52.070;20.970;2023-05-03T06:39:27;61903.75;;;-147.04;44.21
39075;BME280;24826;52.070;20.970;2023-05-03T06:42:12;61891.81;;;-147.04;44.34
39075;BME280;24826;52.070;20.970;2023-05-03T06:44:56;61903.75;;;-147.04;44.29
39075;BME280;24826;52.070;20.970;2023-05-03T06:47:40;61885.84;;;-147.04;44.23
39075;BME280;24826;52.070;20.970;2023-05-03T06:50:25;61889.84;;;-147.04;44.20
39075;BME280;24826;52.070;20.970;2023-05-03T06:53:10;61885.84;;;-147.04;44.17
39075;BME280;24826;52.070;20.970;2023-05-03T06:55:55;61885.84;;;-147.04;44.37
39075;BME280;24826;52.070;20.970;2023-05-03T06:58:39;61897.78;;;-147.04;44.20
39075;BME280;24826;52.070;20.970;2023-05-03T07:01:23;61893.81;;;-147.04;44.21
39075;BME280;24826;52.070;20.970;2023-05-03T07:04:08;61893.81;;;-147.04;44.16
39075;BME280;24826;52.070;20.970;2023-05-03T07:06:53;61901.75;;;-147.04;44.05
39075;BME280;24826;52.070;20.970;2023-05-03T07:09:37;61889.84;;;-147.04;44.32
39075;BME280;24826;52.070;20.970;2023-05-03T07:12:21;61885.84;;;-147.04;44.19
39075;BME280;24826;52.070;20.970;2023-05-03T07:15:10;61885.84;;;-147.04;44.14
39075;BME280;24826;52.070;20.970;2023-05-03T07:17:54;61911.72;;;-147.04;44.15
39075;BME280;24826;52.070;20.970;2023-05-03T07:20:39;61901.75;;;-147.04;44.02
39075;BME280;24826;52.070;20.970;2023-05-03T07:23:23;61903.75;;;-147.04;44.08
39075;BME280;24826;52.070;20.970;2023-05-03T07:26:08;61897.78;;;-147.04;43.76
39075;BME280;24826;52.070;20.970;2023-05-03T07:28:52;61907.72;;;-147.04;44.19
39075;BME280;24826;52.070;20.970;2023-05-03T07:31:37;61945.50;;;-147.04;43.78
39075;BME280;24826;52.070;20.970;2023-05-03T07:34:21;61965.41;;;-147.04;43.76
39075;BME280;24826;52.070;20.970;2023-05-03T07:37:06;61921.66;;;-147.04;43.93
39075;BME280;24826;52.070;20.970;2023-05-03T07:39:51;61965.41;;;-147.04;44.00
39075;BME280;24826;52.070;20.970;2023-05-03T07:42:35;61941.53;;;-147.04;43.91
39075;BME280;24826;52.070;20.970;2023-05-03T07:45:20;61977.34;;;-147.04;43.70
39075;BME280;24826;52.070;20.970;2023-05-03T07:48:04;62001.19;;;-147.04;43.64
39075;BME280;24826;52.070;20.970;2023-05-03T07:50:49;61989.25;;;-147.04;43.69
39075;BME280;24826;52.070;20.970;2023-05-03T07:53:33;62013.13;;;-147.04;43.79
39075;BME280;24826;52.070;20.970;2023-05-03T07:56:26;61997.22;;;-147.04;43.70
39075;BME280;24826;52.070;20.970;2023-05-03T07:59:10;62040.97;;;-147.04;43.69
39075;BME280;24826;52.070;20.970;2023-05-03T08:01:54;61993.25;;;-147.04;43.48
39075;BME280;24826;52.070;20.970;2023-05-03T08:04:39;62040.97;;;-147.04;43.78
39075;BME280;24826;52.070;20.970;2023-05-03T08:07:23;61997.22;;;-147.04;44.01
39075;BME280;24826;52.070;20.970;2023-05-03T08:10:09;62025.06;;;-147.04;44.17
39075;BME280;24826;52.070;20.970;2023-05-03T08:12:53;62040.97;;;-147.04;43.88
39075;BME280;24826;52.070;20.970;2023-05-03T08:15:37;62025.06;;;-147.04;44.08
39075;BME280;24826;52.070;20.970;2023-05-03T08:18:22;62056.88;;;-147.04;44.23
39075;BME280;24826;52.070;20.970;2023-05-03T08:21:08;62040.97;;;-147.04;44.77
39075;BME280;24826;52.070;20.970;2023-05-03T08:23:53;62056.88;;;-147.04;44.71
39075;BME280;24826;52.070;20.970;2023-05-03T08:26:38;62052.91;;;-147.04;44.82
39075;BME280;24826;52.070;20.970;2023-05-03T08:29:23;62037.00;;;-147.04;44.88
39075;BME280;24826;52.070;20.970;2023-05-03T08:32:07;62072.78;;;-147.04;45.34
39075;BME280;24826;52.070;20.970;2023-05-03T08:34:53;62064.84;;;-147.04;45.19
39075;BME280;24826;52.070;20.970;2023-05-03T08:37:39;62068.81;;;-147.04;45.05
39075;BME280;24826;52.070;20.970;2023-05-03T08:40:26;62044.94;;;-147.04;45.04
39075;BME280;24826;52.070;20.970;2023-05-03T08:43:12;62056.88;;;-147.04;44.53
39075;BME280;24826;52.070;20.970;2023-05-03T08:45:58;62052.91;;;-147.04;44.52
39075;BME280;24826;52.070;20.970;2023-05-03T08:48:48;62025.06;;;-147.04;44.54
39075;BME280;24826;52.070;20.970;2023-05-03T08:51:33;62029.03;;;-147.04;44.46
39075;BME280;24826;52.070;20.970;2023-05-03T08:54:18;62013.13;;;-147.04;44.46
39075;BME280;24826;52.070;20.970;2023-05-03T08:57:09;62021.09;;;-147.04;43.32
39075;BME280;24826;52.070;20.970;2023-05-03T08:59:54;61995.22;;;-147.04;38.04
39075;BME280;24826;52.070;20.970;2023-05-03T09:02:41;61979.31;;;-147.04;38.04
39075;BME280;24826;52.070;20.970;2023-05-03T09:05:30;61957.44;;;-147.04;37.77
39075;BME280;24826;52.070;20.970;2023-05-03T09:08:15;61929.59;;;-147.04;37.09
39075;BME280;24826;52.070;20.970;2023-05-03T09:11:00;61999.22;;;-147.04;36.35
39075;BME280;24826;52.070;20.970;2023-05-03T09:13:44;61850.06;;;-147.04;35.97
39075;BME280;24826;52.070;20.970;2023-05-03T09:16:29;61836.13;;;-147.04;35.50
39075;BME280;24826;52.070;20.970;2023-05-03T09:19:14;61927.63;;;-147.04;36.69
39075;BME280;24826;52.070;20.970;2023-05-03T09:22:05;61929.59;;;-147.04;37.66
39075;BME280;24826;52.070;20.970;2023-05-03T09:24:53;61933.59;;;-147.04;39.23
39075;BME280;24826;52.070;20.970;2023-05-03T09:27:38;61967.38;;;-147.04;40.06
39075;BME280;24826;52.070;20.970;2023-05-03T09:30:23;61953.47;;;-147.04;40.17
39075;BME280;24826;52.070;20.970;2023-05-03T09:33:07;61981.31;;;-147.04;40.18
39075;BME280;24826;52.070;20.970;2023-05-03T09:38:40;61921.66;;;-147.04;40.21
39075;BME280;24826;52.070;20.970;2023-05-03T09:41:28;62017.09;;;-147.04;40.75
39075;BME280;24826;52.070;20.970;2023-05-03T09:44:13;61983.31;;;-147.04;40.73
39075;BME280;24826;52.070;20.970;2023-05-03T09:47:04;61965.41;;;-147.04;40.80
39075;BME280;24826;52.070;20.970;2023-05-03T09:49:48;61977.34;;;-147.04;41.00
39075;BME280;24826;52.070;20.970;2023-05-03T09:52:33;61957.44;;;-147.04;41.12
39075;BME280;24826;52.070;20.970;2023-05-03T09:55:18;61957.44;;;-147.04;40.46
39075;BME280;24826;52.070;20.970;2023-05-03T09:58:04;61955.47;;;-147.04;41.27
39075;BME280;24826;52.070;20.970;2023-05-03T10:00:52;61995.22;;;-147.04;41.18
39075;BME280;24826;52.070;20.970;2023-05-03T10:03:40;62005.19;;;-147.04;41.62
39075;BME280;24826;52.070;20.970;2023-05-03T10:06:34;62029.03;;;-147.04;41.96
39075;BME280;24826;52.070;20.970;2023-05-03T10:09:35;61969.38;;;-147.04;42.21
39075;BME280;24826;52.070;20.970;2023-05-03T10:12:24;61989.25;;;-147.04;41.71
39075;BME280;24826;52.070;20.970;2023-05-03T10:15:10;62009.16;;;-147.04;41.68
39075;BME280;24826;52.070;20.970;2023-05-03T10:17:58;61997.22;;;-147.04;40.67
39075;BME280;24826;52.070;20.970;2023-05-03T10:20:49;62013.13;;;-147.04;41.12
39075;BME280;24826;52.070;20.970;2023-05-03T10:24:09;62027.06;;;-147.04;40.88
39075;BME280;24826;52.070;20.970;2023-05-03T10:26:57;62025.06;;;-147.04;40.50
39075;BME280;24826;52.070;20.970;2023-05-03T10:29:46;61969.38;;;-147.04;40.94
39075;BME280;24826;52.070;20.970;2023-05-03T10:32:36;62005.19;;;-147.04;40.46
39075;BME280;24826;52.070;20.970;2023-05-03T10:35:27;62017.09;;;-147.04;39.26
39075;BME280;24826;52.070;20.970;2023-05-03T10:38:16;61979.31;;;-147.04;37.94
39075;BME280;24826;52.070;20.970;2023-05-03T10:41:03;62021.09;;;-147.04;39.02
39075;BME280;24826;52.070;20.970;2023-05-03T10:43:49;61985.28;;;-147.04;39.37
39075;BME280;24826;52.070;20.970;2023-05-03T10:46:34;62005.19;;;-147.04;39.69
39075;BME280;24826;52.070;20.970;2023-05-03T10:49:23;62029.03;;;-147.04;40.02
39075;BME280;24826;52.070;20.970;2023-05-03T10:55:20;62025.06;;;-147.04;40.03
39075;BME280;24826;52.070;20.970;2023-05-03T10:58:08;61957.44;;;-147.04;36.59
39075;BME280;24826;52.070;20.970;2023-05-03T11:00:53;61973.34;;;-147.04;32.88
39075;BME280;24826;52.070;20.970;2023-05-03T11:04:04;61967.38;;;-147.04;32.47
39075;BME280;24826;52.070;20.970;2023-05-03T11:06:51;61961.41;;;-147.04;33.04
39075;BME280;24826;52.070;20.970;2023-05-03T11:09:39;61999.22;;;-147.04;33.68
39075;BME280;24826;52.070;20.970;2023-05-03T11:12:24;61987.28;;;-147.04;34.68
39075;BME280;24826;52.070;20.970;2023-05-03T11:15:10;62017.09;;;-147.04;36.14
39075;BME280;24826;52.070;20.970;2023-05-03T11:17:55;61991.25;;;-147.04;36.32
39075;BME280;24826;52.070;20.970;2023-05-03T11:20:40;62001.19;;;-147.04;36.67
39075;BME280;24826;52.070;20.970;2023-05-03T11:23:28;62001.19;;;-147.04;35.85
39075;BME280;24826;52.070;20.970;2023-05-03T11:26:13;62009.16;;;-147.04;35.87
39075;BME280;24826;52.070;20.970;2023-05-03T11:28:57;61955.47;;;-147.04;36.18
39075;BME280;24826;52.070;20.970;2023-05-03T11:31:42;62019.09;;;-147.04;36.41
39075;BME280;24826;52.070;20.970;2023-05-03T11:34:27;61981.31;;;-147.04;37.13
39075;BME280;24826;52.070;20.970;2023-05-03T11:37:11;61973.34;;;-147.04;37.49
39075;BME280;24826;52.070;20.970;2023-05-03T11:39:56;61977.34;;;-147.04;37.64
39075;BME280;24826;52.070;20.970;2023-05-03T11:42:54;61965.41;;;-147.04;37.69
39075;BME280;24826;52.070;20.970;2023-05-03T11:45:43;62003.19;;;-147.04;37.59
39075;BME280;24826;52.070;20.970;2023-05-03T11:48:28;61993.25;;;-147.04;37.77
39075;BME280;24826;52.070;20.970;2023-05-03T11:51:21;62037.00;;;-147.04;37.39
39075;BME280;24826;52.070;20.970;2023-05-03T11:54:06;61997.22;;;-147.04;36.82
39075;BME280;24826;52.070;20.970;2023-05-03T11:56:54;62009.16;;;-147.04;37.26
39075;BME280;24826;52.070;20.970;2023-05-03T11:59:40;61985.28;;;-147.04;37.90
39075;BME280;24826;52.070;20.970;2023-05-03T12:02:25;61981.31;;;-147.04;38.13
39075;BME280;24826;52.070;20.970;2023-05-03T12:05:10;61969.38;;;-147.04;38.08
39075;BME280;24826;52.070;20.970;2023-05-03T12:07:56;62017.09;;;-147.04;38.14
39075;BME280;24826;52.070;20.970;2023-05-03T12:10:40;62023.06;;;-147.04;37.87
39075;BME280;24826;52.070;20.970;2023-05-03T12:13:32;61977.34;;;-147.04;38.08
39075;BME280;24826;52.070;20.970;2023-05-03T12:16:20;62013.13;;;-147.04;37.93
39075;BME280;24826;52.070;20.970;2023-05-03T12:19:05;61959.44;;;-147.04;38.31
39075;BME280;24826;52.070;20.970;2023-05-03T12:21:50;62001.19;;;-147.04;38.30
39075;BME280;24826;52.070;20.970;2023-05-03T12:24:34;62019.09;;;-147.04;38.41
39075;BME280;24826;52.070;20.970;2023-05-03T12:27:18;62007.16;;;-147.04;38.56
39075;BME280;24826;52.070;20.970;2023-05-03T12:30:03;61949.50;;;-147.04;38.78
39075;BME280;24826;52.070;20.970;2023-05-03T12:32:48;62042.97;;;-147.04;39.06
39075;BME280;24826;52.070;20.970;2023-05-03T12:35:32;61991.25;;;-147.04;39.31
39075;BME280;24826;52.070;20.970;2023-05-03T12:38:16;61981.31;;;-147.04;40.00
39075;BME280;24826;52.070;20.970;2023-05-03T12:41:01;62003.19;;;-147.04;39.75
39075;BME280;24826;52.070;20.970;2023-05-03T12:43:46;61993.25;;;-147.04;40.17
39075;BME280;24826;52.070;20.970;2023-05-03T12:46:30;61989.25;;;-147.04;41.41
39075;BME280;24826;52.070;20.970;2023-05-03T12:49:14;62031.03;;;-147.04;42.98
39075;BME280;24826;52.070;20.970;2023-05-03T12:51:59;62035.00;;;-147.04;42.96
39075;BME280;24826;52.070;20.970;2023-05-03T12:54:43;62046.94;;;-147.04;43.80
39075;BME280;24826;52.070;20.970;2023-05-03T12:57:29;62033.00;;;-147.04;44.84
39075;BME280;24826;52.070;20.970;2023-05-03T13:00:14;62054.91;;;-147.04;46.44
39075;BME280;24826;52.070;20.970;2023-05-03T13:03:01;62005.19;;;-147.04;45.50
39075;BME280;24826;52.070;20.970;2023-05-03T13:05:46;62029.03;;;-147.04;45.34
39075;BME280;24826;52.070;20.970;2023-05-03T13:08:30;62042.97;;;-147.04;44.67
39075;BME280;24826;52.070;20.970;2023-05-03T13:11:15;62013.13;;;-147.04;44.31
39075;BME280;24826;52.070;20.970;2023-05-03T13:14:01;62013.13;;;-147.04;37.32
39075;BME280;24826;52.070;20.970;2023-05-03T13:16:47;62009.16;;;-147.04;34.00
39075;BME280;24826;52.070;20.970;2023-05-03T13:19:34;61993.25;;;-147.04;35.23
39075;BME280;24826;52.070;20.970;2023-05-03T13:22:21;61997.22;;;-147.04;33.78
39075;BME280;24826;52.070;20.970;2023-05-03T13:25:06;61983.31;;;-147.04;33.34
39075;BME280;24826;52.070;20.970;2023-05-03T13:27:51;62015.13;;;-147.04;35.04
39075;BME280;24826;52.070;20.970;2023-05-03T13:30:36;62017.09;;;-147.04;34.72
39075;BME280;24826;52.070;20.970;2023-05-03T13:33:20;61999.22;;;-147.04;34.55
39075;BME280;24826;52.070;20.970;2023-05-03T13:36:06;62003.19;;;-147.04;33.92
39075;BME280;24826;52.070;20.970;2023-05-03T13:38:51;61985.28;;;-147.04;36.54
39075;BME280;24826;52.070;20.970;2023-05-03T13:41:38;62001.19;;;-147.04;36.69
39075;BME280;24826;52.070;20.970;2023-05-03T13:44:23;62009.16;;;-147.04;37.81
39075;BME280;24826;52.070;20.970;2023-05-03T13:47:08;62025.06;;;-147.04;37.23
39075;BME280;24826;52.070;20.970;2023-05-03T13:49:56;62001.19;;;-147.04;34.00
39075;BME280;24826;52.070;20.970;2023-05-03T13:52:40;62003.19;;;-147.04;36.26
39075;BME280;24826;52.070;20.970;2023-05-03T13:55:27;61961.41;;;-147.04;35.97
39075;BME280;24826;52.070;20.970;2023-05-03T13:58:11;61985.28;;;-147.04;36.30
39075;BME280;24826;52.070;20.970;2023-05-03T14:00:56;61995.22;;;-147.04;34.51
39075;BME280;24826;52.070;20.970;2023-05-03T14:03:40;62017.09;;;-147.04;35.92
39075;BME280;24826;52.070;20.970;2023-05-03T14:06:24;61965.41;;;-147.04;34.52
39075;BME280;24826;52.070;20.970;2023-05-03T14:09:08;61981.31;;;-147.04;35.02
39075;BME280;24826;52.070;20.970;2023-05-03T14:11:53;62017.09;;;-147.04;33.12
39075;BME280;24826;52.070;20.970;2023-05-03T14:14:37;62128.47;;;-147.04;31.93